createdAt,value
2018-07-31T00:00:21.533Z,97982.34
2018-07-31T00:02:50.821Z,97989.77
2018-07-31T00:05:19.992Z,97980.47
2018-07-31T00:07:49.165Z,97981.13
2018-07-31T00:10:18.364Z,97982.19
2018-07-31T00:12:47.524Z,97979.77
2018-07-31T00:15:16.688Z,97987.31
2018-07-31T00:17:45.854Z,97981.48
2018-07-31T00:20:15.009Z,97986.95
2018-07-31T00:22:44.164Z,97986.94
2018-07-31T00:25:13.326Z,97985.28
2018-07-31T00:27:42.492Z,97988.63
2018-07-31T00:30:11.666Z,97987.50
2018-07-31T00:32:40.819Z,97988.74
2018-07-31T00:35:10.000Z,97991.48
2018-07-31T00:37:39.168Z,97990.72
2018-07-31T00:40:08.328Z,97985.03
2018-07-31T00:42:37.688Z,97989.95
2018-07-31T00:45:07.027Z,97982.30
2018-07-31T00:47:36.184Z,97993.59
2018-07-31T00:50:05.138Z,97989.56
2018-07-31T00:52:34.321Z,97985.70
2018-07-31T00:55:03.490Z,97987.23
2018-07-31T00:57:32.664Z,97984.50
2018-07-31T01:00:01.839Z,97983.00
2018-07-31T01:02:31.011Z,97985.27
2018-07-31T01:05:00.167Z,97989.14
2018-07-31T01:07:29.338Z,97987.39
2018-07-31T01:09:58.497Z,97985.58
2018-07-31T01:12:27.669Z,97982.45
2018-07-31T01:14:56.828Z,97977.41
2018-07-31T01:17:25.995Z,97986.73
2018-07-31T01:19:55.157Z,97981.73
2018-07-31T01:22:24.335Z,97988.23
2018-07-31T01:24:53.519Z,97991.95
2018-07-31T01:27:22.675Z,97987.91
2018-07-31T01:29:51.845Z,97992.12
2018-07-31T01:32:21.004Z,97987.07
2018-07-31T01:34:50.164Z,97986.63
2018-07-31T01:37:19.329Z,97986.61
2018-07-31T01:39:48.496Z,97984.27
2018-07-31T01:42:17.660Z,97986.77
2018-07-31T01:44:46.826Z,97990.56
2018-07-31T01:47:16.095Z,97988.25
2018-07-31T01:49:45.264Z,97990.50
2018-07-31T01:52:14.423Z,97989.67
2018-07-31T01:54:43.964Z,97990.23
2018-07-31T01:57:13.195Z,97994.77
2018-07-31T01:59:42.203Z,97993.45
2018-07-31T02:02:11.296Z,97990.47
2018-07-31T02:04:40.477Z,97993.14
2018-07-31T02:07:09.645Z,97986.41
2018-07-31T02:09:38.816Z,97987.93
2018-07-31T02:12:07.972Z,97981.23
2018-07-31T02:14:37.144Z,97988.23
2018-07-31T02:17:06.596Z,97986.12
2018-07-31T02:19:35.751Z,97980.56
2018-07-31T02:22:04.909Z,97975.42
2018-07-31T02:24:34.067Z,97974.19
2018-07-31T02:27:03.240Z,97972.90
2018-07-31T02:29:37.649Z,97967.34
2018-07-31T02:32:06.827Z,97973.00
2018-07-31T02:34:36.032Z,97970.71
2018-07-31T02:37:05.589Z,97971.12
2018-07-31T02:39:34.731Z,97968.56
2018-07-31T02:42:03.916Z,97967.91
2018-07-31T02:44:33.072Z,97968.42
2018-07-31T02:47:02.135Z,97968.43
2018-07-31T02:49:31.075Z,97968.14
2018-07-31T02:52:00.244Z,97964.20
2018-07-31T02:54:29.401Z,97968.52
2018-07-31T02:56:58.572Z,97959.88
2018-07-31T02:59:27.747Z,97959.37
2018-07-31T03:01:56.913Z,97958.91
2018-07-31T03:04:26.072Z,97956.06
2018-07-31T03:06:55.236Z,97954.17
2018-07-31T03:09:24.405Z,97955.09
2018-07-31T03:11:53.573Z,97947.94
2018-07-31T03:14:22.749Z,97956.70
2018-07-31T03:16:51.925Z,97958.04
2018-07-31T03:19:21.096Z,97962.49
2018-07-31T03:21:50.258Z,97965.20
2018-07-31T03:24:19.421Z,97957.03
2018-07-31T03:26:48.588Z,97958.63
2018-07-31T03:29:17.757Z,97962.03
2018-07-31T03:31:46.920Z,97958.82
2018-07-31T03:34:16.093Z,97959.09
2018-07-31T03:36:45.269Z,97960.65
2018-07-31T03:39:14.429Z,97958.83
2018-07-31T03:41:43.599Z,97963.08
2018-07-31T03:44:12.772Z,97964.61
2018-07-31T03:46:41.946Z,97961.94
2018-07-31T03:49:11.121Z,97966.42
2018-07-31T03:51:40.280Z,97967.34
2018-07-31T03:54:09.285Z,97966.16
2018-07-31T03:56:38.456Z,97974.28
2018-07-31T03:59:07.628Z,97972.71
2018-07-31T04:01:36.800Z,97971.75
2018-07-31T04:04:06.060Z,97971.28
2018-07-31T04:06:35.232Z,97976.80
2018-07-31T04:09:06.709Z,97982.77
2018-07-31T04:11:35.655Z,97981.25
2018-07-31T04:14:04.833Z,97989.52
2018-07-31T04:16:33.992Z,97989.89
2018-07-31T04:19:03.156Z,97984.80
2018-07-31T04:21:32.316Z,97989.03
2018-07-31T04:24:01.588Z,97987.94
2018-07-31T04:26:30.752Z,97992.62
2018-07-31T04:28:59.924Z,97996.73
2018-07-31T04:31:29.085Z,97997.61
2018-07-31T04:33:58.259Z,97993.25
2018-07-31T04:36:27.411Z,97997.23
2018-07-31T04:38:56.577Z,98003.55
2018-07-31T04:41:25.763Z,97998.78
2018-07-31T04:43:54.944Z,98004.39
2018-07-31T04:46:24.099Z,98006.16
2018-07-31T04:48:53.821Z,98005.83
2018-07-31T04:51:22.985Z,98002.75
2018-07-31T04:53:52.151Z,98002.58
2018-07-31T04:56:21.317Z,98008.80
2018-07-31T04:58:51.042Z,98008.53
2018-07-31T05:01:20.234Z,98008.59
2018-07-31T05:03:49.388Z,98010.14
2018-07-31T05:06:18.551Z,98016.18
2018-07-31T05:08:47.488Z,98012.88
2018-07-31T05:11:16.664Z,98017.52
2018-07-31T05:13:45.828Z,98014.59
2018-07-31T05:16:14.996Z,98015.88
2018-07-31T05:18:44.164Z,98021.80
2018-07-31T05:21:13.331Z,98023.36
2018-07-31T05:23:42.488Z,98024.32
2018-07-31T05:26:11.656Z,98031.13
2018-07-31T05:28:40.829Z,98029.91
2018-07-31T05:31:10.003Z,98033.80
2018-07-31T05:33:39.177Z,98030.02
2018-07-31T05:36:08.344Z,98035.58
2018-07-31T05:38:37.508Z,98037.20
2018-07-31T05:41:06.465Z,98028.89
2018-07-31T05:43:35.624Z,98030.18
2018-07-31T05:46:04.835Z,98030.75
2018-07-31T05:48:33.740Z,98030.76
2018-07-31T05:51:02.921Z,98028.18
2018-07-31T05:53:32.482Z,98031.22
2018-07-31T05:56:02.095Z,98030.63
2018-07-31T05:58:31.260Z,98028.63
2018-07-31T06:01:00.432Z,98029.31
2018-07-31T06:03:29.647Z,98023.75
2018-07-31T06:05:58.803Z,98025.34
2018-07-31T06:08:27.977Z,98035.76
2018-07-31T06:10:57.165Z,98031.84
2018-07-31T06:13:26.333Z,98028.66
2018-07-31T06:15:55.489Z,98028.80
2018-07-31T06:18:24.663Z,98031.11
2018-07-31T06:20:53.939Z,98032.64
2018-07-31T06:23:23.117Z,98035.17
2018-07-31T06:25:52.286Z,98040.80
2018-07-31T06:28:21.464Z,98041.09
2018-07-31T06:30:50.624Z,98037.75
2018-07-31T06:33:19.848Z,98038.27
2018-07-31T06:35:49.016Z,98036.52
2018-07-31T06:38:18.198Z,98044.31
2018-07-31T06:40:47.360Z,98047.48
2018-07-31T06:43:16.547Z,98048.14
2018-07-31T06:45:45.708Z,98057.12
2018-07-31T06:48:14.928Z,98054.42
2018-07-31T06:50:44.111Z,98051.97
2018-07-31T06:53:13.293Z,98059.45
2018-07-31T06:55:42.468Z,98062.16
2018-07-31T06:58:11.655Z,98052.99
2018-07-31T07:00:40.833Z,98065.78
2018-07-31T07:03:10.014Z,98062.64
2018-07-31T07:05:39.188Z,98066.66
2018-07-31T07:08:08.356Z,98067.67
2018-07-31T07:10:37.549Z,98064.14
2018-07-31T07:13:06.748Z,98064.34
2018-07-31T07:15:36.016Z,98070.97
2018-07-31T07:18:05.308Z,98068.02
2018-07-31T07:20:34.489Z,98071.55
2018-07-31T07:23:03.673Z,98064.69
2018-07-31T07:25:32.845Z,98067.25
2018-07-31T07:28:02.088Z,98068.16
2018-07-31T07:30:31.197Z,98069.88
2018-07-31T07:33:00.376Z,98068.56
2018-07-31T07:35:29.574Z,98064.70
2018-07-31T07:37:58.989Z,98069.02
2018-07-31T07:40:28.169Z,98067.16
2018-07-31T07:42:57.350Z,98058.92
2018-07-31T07:45:26.517Z,98059.50
2018-07-31T07:47:55.690Z,98062.52
2018-07-31T07:50:24.867Z,98064.44
2018-07-31T07:52:54.036Z,98061.45
2018-07-31T07:55:23.213Z,98061.23
2018-07-31T07:57:52.384Z,98061.12
2018-07-31T08:00:21.561Z,98062.02
2018-07-31T08:02:50.736Z,98063.66
2018-07-31T08:05:19.920Z,98065.61
2018-07-31T08:07:49.094Z,98063.48
2018-07-31T08:10:18.265Z,98064.70
2018-07-31T08:12:47.455Z,98066.41
2018-07-31T08:15:16.400Z,98076.77
2018-07-31T08:17:45.576Z,98071.06
2018-07-31T08:20:14.785Z,98072.05
2018-07-31T08:22:43.977Z,98064.52
2018-07-31T08:25:13.112Z,98071.26
2018-07-31T08:27:42.336Z,98073.04
2018-07-31T08:30:11.482Z,98068.28
2018-07-31T08:32:40.666Z,98072.53
2018-07-31T08:35:09.828Z,98067.13
2018-07-31T08:37:39.016Z,98074.13
2018-07-31T08:40:08.192Z,98074.64
2018-07-31T08:42:37.374Z,98066.56
2018-07-31T08:45:06.807Z,98068.70
2018-07-31T08:47:35.987Z,98069.28
2018-07-31T08:50:05.415Z,98065.58
2018-07-31T08:52:34.348Z,98065.61
2018-07-31T08:55:03.512Z,98060.57
2018-07-31T08:57:32.697Z,98063.34
2018-07-31T09:00:01.880Z,98061.03
2018-07-31T09:02:31.061Z,98063.91
2018-07-31T09:05:00.232Z,98064.86
2018-07-31T09:07:29.405Z,98061.98
2018-07-31T09:09:58.587Z,98055.44
2018-07-31T09:12:27.721Z,98059.30
2018-07-31T09:14:56.856Z,98059.26
2018-07-31T09:17:25.999Z,98061.17
2018-07-31T09:19:55.133Z,98060.90
2018-07-31T09:22:24.264Z,98061.17
2018-07-31T09:24:53.520Z,98059.59
2018-07-31T09:27:22.626Z,98057.70
2018-07-31T09:29:51.777Z,98052.36
2018-07-31T09:32:26.114Z,98056.05
2018-07-31T09:34:55.254Z,98057.00
2018-07-31T09:37:24.394Z,98053.66
2018-07-31T09:39:53.562Z,98050.67
2018-07-31T09:42:22.482Z,98043.58
2018-07-31T09:44:51.622Z,98046.25
2018-07-31T09:47:20.754Z,98049.33
2018-07-31T09:49:49.897Z,98048.04
2018-07-31T09:52:19.034Z,98046.24
2018-07-31T09:54:48.169Z,98046.19
2018-07-31T09:57:17.346Z,98053.70
2018-07-31T09:59:46.441Z,98048.63
2018-07-31T10:02:15.598Z,98046.48
2018-07-31T10:04:44.735Z,98041.98
2018-07-31T10:07:13.861Z,98046.84
2018-07-31T10:09:42.985Z,98046.12
2018-07-31T10:12:12.164Z,98041.40
2018-07-31T10:14:41.243Z,98045.83
2018-07-31T10:17:10.380Z,98036.43
2018-07-31T10:19:39.510Z,98038.95
2018-07-31T10:22:08.656Z,98033.96
2018-07-31T10:24:37.835Z,98025.02
2018-07-31T10:27:07.167Z,98025.03
2018-07-31T10:29:36.315Z,98021.25
2018-07-31T10:32:05.481Z,98021.46
2018-07-31T10:34:34.613Z,98016.45
2018-07-31T10:37:03.757Z,98013.70
2018-07-31T10:39:32.894Z,98019.14
2018-07-31T10:42:02.034Z,98013.19
2018-07-31T10:44:31.156Z,98007.19
2018-07-31T10:47:00.289Z,98013.48
2018-07-31T10:49:29.416Z,98005.49
2018-07-31T10:51:58.560Z,98014.25
2018-07-31T10:54:27.703Z,98011.61
2018-07-31T10:56:56.830Z,98011.64
2018-07-31T10:59:25.728Z,98010.99
2018-07-31T11:01:54.645Z,98010.25
2018-07-31T11:04:23.853Z,98004.75
2018-07-31T11:06:52.947Z,98004.25
2018-07-31T11:09:22.112Z,98000.61
2018-07-31T11:11:51.308Z,98002.64
2018-07-31T11:14:20.490Z,98004.89
2018-07-31T11:16:49.649Z,97999.98
2018-07-31T11:19:18.823Z,97996.66
2018-07-31T11:21:48.033Z,97998.20
2018-07-31T11:24:17.210Z,97995.53
2018-07-31T11:26:46.381Z,97996.88
2018-07-31T11:29:15.621Z,97994.69
2018-07-31T11:31:44.840Z,97995.05
2018-07-31T11:34:14.018Z,97996.31
2018-07-31T11:36:43.189Z,97994.89
2018-07-31T11:39:12.612Z,97990.27
2018-07-31T11:41:44.689Z,97984.30
2018-07-31T11:44:13.853Z,97976.38
2018-07-31T11:46:43.072Z,97984.80
2018-07-31T11:49:12.270Z,97973.94
2018-07-31T11:51:41.449Z,97967.50
2018-07-31T11:54:10.389Z,97973.90
2018-07-31T11:56:39.567Z,97969.33
2018-07-31T11:59:08.786Z,97964.27
2018-07-31T12:01:37.994Z,97956.81
2018-07-31T12:04:07.159Z,97953.91
2018-07-31T12:06:36.326Z,97954.30
2018-07-31T12:09:10.951Z,97962.83
2018-07-31T12:11:40.108Z,97955.34
2018-07-31T12:14:09.278Z,97958.25
2018-07-31T12:16:38.441Z,97962.13
2018-07-31T12:19:07.710Z,97961.69
2018-07-31T12:21:36.876Z,97966.29
2018-07-31T12:24:06.083Z,97963.33
2018-07-31T12:26:35.239Z,97959.55
2018-07-31T12:29:04.401Z,97960.41
2018-07-31T12:31:33.564Z,97957.72
2018-07-31T12:34:02.729Z,97953.83
2018-07-31T12:36:31.910Z,97953.13
2018-07-31T12:39:00.853Z,97953.23
2018-07-31T12:41:30.029Z,97952.94
2018-07-31T12:43:59.243Z,97957.02
2018-07-31T12:46:28.383Z,97952.66
2018-07-31T12:48:57.316Z,97955.13
2018-07-31T12:51:26.481Z,97947.66
2018-07-31T12:53:55.403Z,97947.29
2018-07-31T12:56:24.584Z,97937.26
2018-07-31T12:58:53.744Z,97946.98
2018-07-31T13:01:22.929Z,97946.70
2018-07-31T13:03:52.531Z,97943.19
2018-07-31T13:06:21.723Z,97945.91
2018-07-31T13:08:50.893Z,97948.03
2018-07-31T13:11:20.076Z,97944.02
2018-07-31T13:13:49.236Z,97927.34
2018-07-31T13:16:18.422Z,97933.94
2018-07-31T13:18:47.590Z,97922.28
2018-07-31T13:21:16.753Z,97930.98
2018-07-31T13:23:45.908Z,97928.86
2018-07-31T13:26:15.087Z,97933.76
2018-07-31T13:28:44.244Z,97933.25
2018-07-31T13:31:13.412Z,97924.11
2018-07-31T13:33:42.589Z,97922.19
2018-07-31T13:36:11.762Z,97919.86
2018-07-31T13:38:40.929Z,97923.06
2018-07-31T13:41:10.093Z,97920.28
2018-07-31T13:43:39.322Z,97927.60
2018-07-31T13:46:08.455Z,97924.41
2018-07-31T13:48:37.640Z,97929.50
2018-07-31T13:51:07.134Z,97927.51
2018-07-31T13:53:36.305Z,97923.08
2018-07-31T13:56:05.494Z,97922.39
2018-07-31T13:58:34.666Z,97925.73
2018-07-31T14:01:03.840Z,97920.42
2018-07-31T14:03:33.021Z,97930.02
2018-07-31T14:06:02.188Z,97925.56
2018-07-31T14:08:31.368Z,97929.67
2018-07-31T14:11:00.529Z,97928.84
2018-07-31T14:13:29.730Z,97922.26
2018-07-31T14:15:59.712Z,97925.22
2018-07-31T14:18:28.915Z,97926.44
2018-07-31T14:20:58.095Z,97927.47
2018-07-31T14:23:27.265Z,97922.46
2018-07-31T14:25:56.464Z,97916.98
2018-07-31T14:28:25.636Z,97918.31
2018-07-31T14:30:54.896Z,97915.83
2018-07-31T14:33:24.004Z,97915.08
2018-07-31T14:35:53.176Z,97925.38
2018-07-31T14:38:22.384Z,97926.96
2018-07-31T14:40:51.352Z,97925.30
2018-07-31T14:43:20.877Z,97931.08
2018-07-31T14:45:50.060Z,97931.12
2018-07-31T14:48:19.237Z,97935.19
2018-07-31T14:50:48.425Z,97937.65
2018-07-31T14:53:17.597Z,97936.33
2018-07-31T14:55:46.777Z,97938.14
2018-07-31T14:58:15.953Z,97936.27
2018-07-31T15:00:45.142Z,97941.92
2018-07-31T15:03:14.316Z,97940.52
2018-07-31T15:05:43.502Z,97933.80
2018-07-31T15:08:12.685Z,97947.28
2018-07-31T15:10:41.898Z,97937.38
2018-07-31T15:13:11.073Z,97937.88
2018-07-31T15:15:40.255Z,97942.98
2018-07-31T15:18:09.428Z,97939.07
2018-07-31T15:20:38.472Z,97947.62
2018-07-31T15:23:07.649Z,97949.58
2018-07-31T15:25:36.919Z,97951.84
2018-07-31T15:28:06.159Z,97951.34
2018-07-31T15:30:35.060Z,97948.23
2018-07-31T15:33:04.250Z,97946.98
2018-07-31T15:35:33.473Z,97949.02
2018-07-31T15:38:02.625Z,97949.70
2018-07-31T15:40:31.814Z,97948.06
2018-07-31T15:43:00.769Z,97946.85
2018-07-31T15:45:29.946Z,97952.88
2018-07-31T15:47:59.130Z,97954.73
2018-07-31T15:50:28.813Z,97953.92
2018-07-31T15:52:58.227Z,97954.88
2018-07-31T15:55:27.617Z,97946.67
2018-07-31T15:57:56.814Z,97953.98
2018-07-31T16:00:25.779Z,97950.79
2018-07-31T16:02:54.964Z,97939.81
2018-07-31T16:05:24.164Z,97945.04
2018-07-31T16:07:53.358Z,97947.45
2018-07-31T16:10:22.541Z,97939.73
2018-07-31T16:12:51.730Z,97943.02
2018-07-31T16:15:20.910Z,97940.04
2018-07-31T16:17:50.160Z,97944.42
2018-07-31T16:20:19.348Z,97940.44
2018-07-31T16:22:48.544Z,97935.08
2018-07-31T16:25:17.730Z,97936.09
2018-07-31T16:27:46.906Z,97935.94
2018-07-31T16:30:16.090Z,97937.51
2018-07-31T16:32:45.267Z,97927.71
2018-07-31T16:35:14.464Z,97935.78
2018-07-31T16:37:43.414Z,97938.58
2018-07-31T16:40:12.773Z,97941.20
2018-07-31T16:42:42.655Z,97937.42
2018-07-31T16:45:12.007Z,97938.05
2018-07-31T16:47:41.287Z,97936.43
2018-07-31T16:50:10.644Z,97935.23
2018-07-31T16:52:40.326Z,97939.81
2018-07-31T16:55:09.524Z,97937.79
2018-07-31T16:57:38.776Z,97935.37
2018-07-31T17:00:08.771Z,97944.15
2018-07-31T17:02:38.348Z,97934.84
2018-07-31T17:05:08.346Z,97942.29
2018-07-31T17:07:37.973Z,97939.95
2018-07-31T17:13:10.261Z,97941.88
2018-07-31T17:15:39.912Z,97946.05
2018-07-31T17:18:09.833Z,97945.84
2018-07-31T17:20:39.398Z,97960.14
2018-07-31T17:23:09.168Z,97959.33
2018-07-31T17:25:38.731Z,97955.52
2018-07-31T17:28:08.966Z,97958.16
2018-07-31T17:30:38.445Z,97956.14
2018-07-31T17:33:09.704Z,97952.59
2018-07-31T17:35:40.140Z,97961.20
2018-07-31T17:38:11.479Z,97963.34
2018-07-31T17:40:42.339Z,97960.98
2018-07-31T17:43:12.567Z,97965.00
2018-07-31T17:45:42.390Z,97972.07
2018-07-31T17:48:11.864Z,97969.34
2018-07-31T17:50:41.011Z,97970.87
2018-07-31T17:53:10.471Z,97970.75
2018-07-31T17:55:39.920Z,97972.67
2018-07-31T17:58:09.366Z,97969.66
2018-07-31T18:00:38.629Z,97977.19
2018-07-31T18:03:07.986Z,97970.65
2018-07-31T18:05:37.394Z,97975.89
2018-07-31T18:08:06.658Z,97986.36
2018-07-31T18:10:35.917Z,97990.34
2018-07-31T18:13:05.313Z,97986.28
2018-07-31T18:15:34.615Z,97993.16
2018-07-31T18:18:03.986Z,97986.22
2018-07-31T18:20:33.293Z,97987.44
2018-07-31T18:23:02.660Z,97998.42
2018-07-31T18:25:32.057Z,97999.28
2018-07-31T18:28:01.470Z,97999.80
2018-07-31T18:30:30.821Z,98007.04
2018-07-31T18:33:00.112Z,98003.78
2018-07-31T18:35:29.408Z,98011.40
2018-07-31T18:37:58.822Z,98009.45
2018-07-31T18:40:28.148Z,98008.58
2018-07-31T18:42:57.594Z,98017.04
2018-07-31T18:45:27.277Z,98012.99
2018-07-31T18:47:56.770Z,98016.30
2018-07-31T18:50:26.156Z,98018.97
2018-07-31T18:52:55.421Z,98019.89
2018-07-31T18:55:24.691Z,98017.64
2018-07-31T18:57:53.967Z,98026.73
2018-07-31T19:00:23.256Z,98025.52
2018-07-31T19:02:52.540Z,98025.23
2018-07-31T19:05:21.976Z,98031.20
2018-07-31T19:07:51.223Z,98041.04
2018-07-31T19:10:20.543Z,98034.77
2018-07-31T19:12:49.804Z,98043.28
2018-07-31T19:15:19.349Z,98046.55
2018-07-31T19:17:48.619Z,98048.31
2018-07-31T19:20:17.931Z,98057.62
2018-07-31T19:22:47.184Z,98058.80
2018-07-31T19:25:16.596Z,98063.84
2018-07-31T19:27:45.884Z,98063.91
2018-07-31T19:30:15.267Z,98066.54
2018-07-31T19:32:44.546Z,98069.89
2018-07-31T19:35:13.826Z,98073.31
2018-07-31T19:37:42.828Z,98068.91
2018-07-31T19:40:12.096Z,98071.67
2018-07-31T19:42:41.386Z,98079.14
2018-07-31T19:45:10.639Z,98078.52
2018-07-31T19:47:39.840Z,98078.76
2018-07-31T19:50:09.037Z,98083.88
2018-07-31T19:52:38.266Z,98094.19
2018-07-31T19:55:07.515Z,98094.44
2018-07-31T19:57:36.707Z,98093.70
2018-07-31T20:00:06.729Z,98090.95
2018-07-31T20:02:35.897Z,98095.09
2018-07-31T20:05:05.399Z,98091.06
2018-07-31T20:07:35.110Z,98101.91
2018-07-31T20:10:04.905Z,98101.33
2018-07-31T20:12:34.154Z,98098.46
2018-07-31T20:15:03.431Z,98092.81
2018-07-31T20:17:32.616Z,98094.33
2018-07-31T20:20:01.818Z,98087.26
2018-07-31T20:22:31.012Z,98087.86
2018-07-31T20:25:00.219Z,98085.59
2018-07-31T20:27:29.549Z,98088.44
2018-07-31T20:29:58.802Z,98086.67
2018-07-31T20:32:28.062Z,98088.67
2018-07-31T20:34:57.258Z,98090.65
2018-07-31T20:37:26.520Z,98090.62
2018-07-31T20:39:55.738Z,98096.23
2018-07-31T20:42:25.098Z,98091.61
2018-07-31T20:44:54.386Z,98099.88
2018-07-31T20:47:23.631Z,98097.39
2018-07-31T20:49:52.886Z,98102.61
2018-07-31T20:52:22.162Z,98102.19
2018-07-31T20:54:51.734Z,98098.20
2018-07-31T20:57:22.139Z,98099.84
2018-07-31T20:59:52.272Z,98103.37
2018-07-31T21:06:09.601Z,98110.08
2018-07-31T21:08:39.034Z,98114.55
2018-07-31T21:11:09.167Z,98114.39
2018-07-31T21:13:38.782Z,98111.61
2018-07-31T21:16:08.493Z,98113.02
2018-07-31T21:18:38.265Z,98113.52
2018-07-31T21:21:08.866Z,98110.05
2018-07-31T21:23:38.150Z,98109.27
2018-07-31T21:26:07.403Z,98107.62
2018-07-31T21:28:36.585Z,98109.25
2018-07-31T21:31:05.733Z,98111.84
2018-07-31T21:33:34.884Z,98108.97
2018-07-31T21:36:04.035Z,98115.21
2018-07-31T21:38:33.188Z,98116.11
2018-07-31T21:41:02.392Z,98115.28
2018-07-31T21:43:31.547Z,98117.05
2018-07-31T21:46:00.698Z,98116.19
2018-07-31T21:48:29.843Z,98116.31
2018-07-31T21:50:58.996Z,98122.42
2018-07-31T21:53:28.145Z,98122.69
2018-07-31T21:55:57.299Z,98124.93
2018-07-31T21:58:26.453Z,98126.81
2018-07-31T22:01:00.967Z,98131.54
2018-07-31T22:03:30.263Z,98127.64
2018-07-31T22:05:59.184Z,98122.68
2018-07-31T22:08:28.343Z,98131.56
2018-07-31T22:10:57.513Z,98130.27
2018-07-31T22:13:26.659Z,98128.23
2018-07-31T22:15:55.824Z,98133.11
2018-07-31T22:18:24.973Z,98143.44
2018-07-31T22:20:54.160Z,98143.93
2018-07-31T22:23:23.304Z,98136.28
2018-07-31T22:25:52.461Z,98148.42
2018-07-31T22:28:21.611Z,98139.33
2018-07-31T22:30:50.776Z,98149.69
2018-07-31T22:33:19.921Z,98149.75
2018-07-31T22:35:48.835Z,98153.30
2018-07-31T22:38:17.996Z,98153.83
2018-07-31T22:40:47.139Z,98154.09
2018-07-31T22:43:16.303Z,98158.01
2018-07-31T22:45:45.448Z,98164.59
2018-07-31T22:48:14.605Z,98167.73
2018-07-31T22:50:43.751Z,98172.30
2018-07-31T22:53:12.903Z,98163.09
2018-07-31T22:55:42.054Z,98162.11
2018-07-31T22:58:11.204Z,98167.62
2018-07-31T23:00:40.348Z,98174.89
2018-07-31T23:03:09.500Z,98177.91
2018-07-31T23:05:38.656Z,98187.78
2018-07-31T23:08:07.809Z,98195.72
2018-07-31T23:10:36.980Z,98193.89
2018-07-31T23:13:06.125Z,98191.47
2018-07-31T23:15:35.263Z,98190.08
2018-07-31T23:18:04.191Z,98175.31
2018-07-31T23:20:33.341Z,98179.00
2018-07-31T23:23:02.497Z,98174.40
2018-07-31T23:25:31.661Z,98172.92
2018-07-31T23:28:00.815Z,98160.07
2018-07-31T23:30:30.401Z,98165.83
2018-07-31T23:32:59.553Z,98161.81
2018-07-31T23:35:28.699Z,98161.05
2018-07-31T23:37:57.852Z,98157.89
2018-07-31T23:40:27.010Z,98161.47
2018-07-31T23:42:56.152Z,98153.91
2018-07-31T23:45:25.310Z,98148.89
2018-07-31T23:47:54.453Z,98150.34
2018-07-31T23:50:23.608Z,98148.09
2018-07-31T23:52:52.761Z,98149.87
2018-07-31T23:55:21.915Z,98155.23
2018-07-31T23:57:51.071Z,98159.98
